sensor_id;sensor_type;location;lat;lon;timestamp;pressure;altitude;pressure_sealevel;temperature;humidity
5609;BME280;2826;51.354;9.588;2023-11-19T00:02:26;97717.97;;;8.23;94.99
5609;BME280;2826;51.354;9.588;2023-11-19T00:04:53;97712.50;;;8.31;94.52
5609;BME280;2826;51.354;9.588;2023-11-19T00:07:20;97708.25;;;8.30;94.64
5609;BME280;2826;51.354;9.588;2023-11-19T00:09:46;97712.41;;;8.34;94.52
5609;BME280;2826;51.354;9.588;2023-11-19T00:12:13;97702.78;;;8.37;94.60
5609;BME280;2826;51.354;9.588;2023-11-19T00:14:40;97715.03;;;8.32;95.44
5609;BME280;2826;51.354;9.588;2023-11-19T00:17:07;97707.38;;;8.29;96.09
5609;BME280;2826;51.354;9.588;2023-11-19T00:19:35;97701.16;;;8.35;95.67
5609;BME280;2826;51.354;9.588;2023-11-19T00:22:02;97692.63;;;8.33;95.52
5609;BME280;2826;51.354;9.588;2023-11-19T00:24:29;97688.69;;;8.22;96.62
5609;BME280;2826;51.354;9.588;2023-11-19T00:26:56;97687.47;;;8.33;96.47
5609;BME280;2826;51.354;9.588;2023-11-19T00:29:22;97674.31;;;8.39;96.09
5609;BME280;2826;51.354;9.588;2023-11-19T00:31:50;97665.84;;;8.35;96.13
5609;BME280;2826;51.354;9.588;2023-11-19T00:34:17;97666.44;;;8.42;96.27
5609;BME280;2826;51.354;9.588;2023-11-19T00:36:49;97647.94;;;8.31;96.24
5609;BME280;2826;51.354;9.588;2023-11-19T00:39:16;97644.94;;;8.42;96.46
5609;BME280;2826;51.354;9.588;2023-11-19T00:41:43;97639.25;;;8.32;97.33
5609;BME280;2826;51.354;9.588;2023-11-19T00:44:11;97642.44;;;8.39;97.05
5609;BME280;2826;51.354;9.588;2023-11-19T00:46:38;97627.69;;;8.42;96.79
5609;BME280;2826;51.354;9.588;2023-11-19T00:49:04;97627.19;;;8.32;97.36
5609;BME280;2826;51.354;9.588;2023-11-19T00:51:31;97614.94;;;8.37;97.14
5609;BME280;2826;51.354;9.588;2023-11-19T00:53:59;97612.19;;;8.42;97.08
5609;BME280;2826;51.354;9.588;2023-11-19T00:56:27;97612.34;;;8.37;97.21
5609;BME280;2826;51.354;9.588;2023-11-19T00:58:54;97620.53;;;8.49;97.39
5609;BME280;2826;51.354;9.588;2023-11-19T01:01:21;97604.75;;;8.34;98.06
5609;BME280;2826;51.354;9.588;2023-11-19T01:03:48;97598.25;;;8.46;97.50
5609;BME280;2826;51.354;9.588;2023-11-19T01:06:15;97599.47;;;8.60;97.13
5609;BME280;2826;51.354;9.588;2023-11-19T01:08:52;97604.28;;;8.45;98.04
5609;BME280;2826;51.354;9.588;2023-11-19T01:11:22;97593.03;;;8.48;98.12
5609;BME280;2826;51.354;9.588;2023-11-19T01:13:49;97593.56;;;8.56;97.74
5609;BME280;2826;51.354;9.588;2023-11-19T01:16:17;97583.91;;;8.61;97.00
5609;BME280;2826;51.354;9.588;2023-11-19T01:18:44;97595.31;;;8.56;97.62
5609;BME280;2826;51.354;9.588;2023-11-19T01:21:11;97592.59;;;8.59;97.89
5609;BME280;2826;51.354;9.588;2023-11-19T01:23:40;97591.50;;;8.65;97.60
5609;BME280;2826;51.354;9.588;2023-11-19T01:26:08;97572.34;;;8.48;98.19
5609;BME280;2826;51.354;9.588;2023-11-19T01:28:36;97579.16;;;8.71;97.94
5609;BME280;2826;51.354;9.588;2023-11-19T01:31:05;97591.91;;;8.76;97.42
5609;BME280;2826;51.354;9.588;2023-11-19T01:33:35;97575.59;;;8.74;97.89
5609;BME280;2826;51.354;9.588;2023-11-19T01:36:03;97542.47;;;8.63;97.60
5609;BME280;2826;51.354;9.588;2023-11-19T01:38:29;97558.88;;;8.83;97.69
5609;BME280;2826;51.354;9.588;2023-11-19T01:40:57;97552.72;;;8.65;98.70
5609;BME280;2826;51.354;9.588;2023-11-19T01:43:34;97559.00;;;8.80;98.09
5609;BME280;2826;51.354;9.588;2023-11-19T01:46:01;97560.22;;;8.92;97.83
5609;BME280;2826;51.354;9.588;2023-11-19T01:48:29;97557.97;;;8.84;97.66
5609;BME280;2826;51.354;9.588;2023-11-19T01:50:56;97565.97;;;8.98;97.17
5609;BME280;2826;51.354;9.588;2023-11-19T01:53:23;97575.28;;;9.02;96.50
5609;BME280;2826;51.354;9.588;2023-11-19T01:55:50;97572.00;;;8.99;97.12
5609;BME280;2826;51.354;9.588;2023-11-19T01:58:18;97565.09;;;8.99;97.19
5609;BME280;2826;51.354;9.588;2023-11-19T02:00:45;97577.75;;;9.06;96.92
5609;BME280;2826;51.354;9.588;2023-11-19T02:03:14;97569.00;;;9.08;96.83
5609;BME280;2826;51.354;9.588;2023-11-19T02:05:41;97567.00;;;8.94;97.93
5609;BME280;2826;51.354;9.588;2023-11-19T02:08:08;97573.44;;;9.06;97.13
5609;BME280;2826;51.354;9.588;2023-11-19T02:10:35;97573.56;;;9.03;97.67
5609;BME280;2826;51.354;9.588;2023-11-19T02:13:02;97569.06;;;9.07;97.41
5609;BME280;2826;51.354;9.588;2023-11-19T02:15:31;97571.25;;;9.16;96.86
5609;BME280;2826;51.354;9.588;2023-11-19T02:18:24;97575.78;;;9.11;97.37
5609;BME280;2826;51.354;9.588;2023-11-19T02:20:53;97547.06;;;8.98;97.23
5609;BME280;2826;51.354;9.588;2023-11-19T02:23:21;97562.00;;;9.10;97.63
5609;BME280;2826;51.354;9.588;2023-11-19T02:25:55;97556.53;;;8.97;98.76
5609;BME280;2826;51.354;9.588;2023-11-19T02:28:26;97555.50;;;9.01;98.35
5609;BME280;2826;51.354;9.588;2023-11-19T02:30:53;97546.25;;;8.96;99.07
5609;BME280;2826;51.354;9.588;2023-11-19T02:33:20;97544.88;;;9.08;98.87
5609;BME280;2826;51.354;9.588;2023-11-19T02:35:47;97532.63;;;9.13;98.38
5609;BME280;2826;51.354;9.588;2023-11-19T02:38:13;97533.56;;;9.10;98.32
5609;BME280;2826;51.354;9.588;2023-11-19T02:40:40;97526.66;;;9.11;99.01
5609;BME280;2826;51.354;9.588;2023-11-19T02:43:07;97527.09;;;9.21;98.49
5609;BME280;2826;51.354;9.588;2023-11-19T02:45:35;97507.22;;;9.21;98.63
5609;BME280;2826;51.354;9.588;2023-11-19T02:48:02;97493.72;;;9.14;99.19
5609;BME280;2826;51.354;9.588;2023-11-19T02:50:32;97492.56;;;9.22;98.81
5609;BME280;2826;51.354;9.588;2023-11-19T02:52:58;97500.31;;;9.22;99.24
5609;BME280;2826;51.354;9.588;2023-11-19T02:55:26;97502.16;;;9.20;99.05
5609;BME280;2826;51.354;9.588;2023-11-19T02:57:56;97486.53;;;9.21;99.49
5609;BME280;2826;51.354;9.588;2023-11-19T03:00:24;97477.44;;;9.12;99.82
5609;BME280;2826;51.354;9.588;2023-11-19T03:02:59;97482.47;;;9.35;98.68
5609;BME280;2826;51.354;9.588;2023-11-19T03:05:35;97476.13;;;9.42;98.47
5609;BME280;2826;51.354;9.588;2023-11-19T03:08:02;97478.94;;;9.37;99.08
5609;BME280;2826;51.354;9.588;2023-11-19T03:10:28;97477.84;;;9.41;98.66
5609;BME280;2826;51.354;9.588;2023-11-19T03:12:56;97477.09;;;9.39;98.92
5609;BME280;2826;51.354;9.588;2023-11-19T03:15:22;97476.19;;;9.40;98.90
5609;BME280;2826;51.354;9.588;2023-11-19T03:17:49;97466.75;;;9.39;98.85
5609;BME280;2826;51.354;9.588;2023-11-19T03:20:17;97469.69;;;9.32;99.68
5609;BME280;2826;51.354;9.588;2023-11-19T03:22:46;97460.94;;;9.34;99.55
5609;BME280;2826;51.354;9.588;2023-11-19T03:25:13;97458.84;;;9.43;99.77
5609;BME280;2826;51.354;9.588;2023-11-19T03:27:40;97447.09;;;9.35;99.63
5609;BME280;2826;51.354;9.588;2023-11-19T03:30:08;97451.59;;;9.32;100.00
5609;BME280;2826;51.354;9.588;2023-11-19T03:32:35;97445.75;;;9.46;100.00
5609;BME280;2826;51.354;9.588;2023-11-19T03:35:02;97455.84;;;9.52;99.79
5609;BME280;2826;51.354;9.588;2023-11-19T03:37:31;97462.81;;;9.50;99.35
5609;BME280;2826;51.354;9.588;2023-11-19T03:39:58;97461.81;;;9.52;99.12
5609;BME280;2826;51.354;9.588;2023-11-19T03:42:27;97466.66;;;9.60;98.96
5609;BME280;2826;51.354;9.588;2023-11-19T03:44:56;97465.06;;;9.58;98.94
5609;BME280;2826;51.354;9.588;2023-11-19T03:47:23;97449.81;;;9.51;99.83
5609;BME280;2826;51.354;9.588;2023-11-19T03:49:50;97438.47;;;9.54;100.00
5609;BME280;2826;51.354;9.588;2023-11-19T03:52:17;97443.28;;;9.62;99.74
5609;BME280;2826;51.354;9.588;2023-11-19T03:54:45;97451.47;;;9.52;100.00
5609;BME280;2826;51.354;9.588;2023-11-19T03:57:12;97451.22;;;9.59;100.00
5609;BME280;2826;51.354;9.588;2023-11-19T03:59:39;97454.41;;;9.64;100.00
5609;BME280;2826;51.354;9.588;2023-11-19T04:02:06;97433.63;;;9.65;100.00
5609;BME280;2826;51.354;9.588;2023-11-19T04:04:32;97437.91;;;9.66;99.93
5609;BME280;2826;51.354;9.588;2023-11-19T04:07:00;97440.03;;;9.76;100.00
5609;BME280;2826;51.354;9.588;2023-11-19T04:09:28;97426.47;;;9.71;100.00
5609;BME280;2826;51.354;9.588;2023-11-19T04:11:56;97408.88;;;9.60;100.00
5609;BME280;2826;51.354;9.588;2023-11-19T04:14:23;97419.03;;;9.82;100.00
5609;BME280;2826;51.354;9.588;2023-11-19T04:16:49;97427.56;;;9.84;99.89
5609;BME280;2826;51.354;9.588;2023-11-19T04:19:16;97412.88;;;9.85;99.85
5609;BME280;2826;51.354;9.588;2023-11-19T04:21:43;97412.03;;;9.84;99.99
5609;BME280;2826;51.354;9.588;2023-11-19T04:24:10;97435.53;;;9.79;100.00
5609;BME280;2826;51.354;9.588;2023-11-19T04:26:43;97422.06;;;9.90;99.99
5609;BME280;2826;51.354;9.588;2023-11-19T04:29:12;97432.66;;;9.86;99.92
5609;BME280;2826;51.354;9.588;2023-11-19T04:31:40;97450.41;;;9.93;99.81
5609;BME280;2826;51.354;9.588;2023-11-19T04:34:07;97442.72;;;9.92;99.36
5609;BME280;2826;51.354;9.588;2023-11-19T04:36:33;97440.59;;;9.83;100.00
5609;BME280;2826;51.354;9.588;2023-11-19T04:39:00;97438.59;;;9.88;100.00
5609;BME280;2826;51.354;9.588;2023-11-19T04:41:27;97437.25;;;9.80;100.00
5609;BME280;2826;51.354;9.588;2023-11-19T04:43:54;97446.03;;;9.96;100.00
5609;BME280;2826;51.354;9.588;2023-11-19T04:46:22;97438.31;;;9.94;99.54
5609;BME280;2826;51.354;9.588;2023-11-19T04:48:50;97412.50;;;9.92;100.00
5609;BME280;2826;51.354;9.588;2023-11-19T04:51:16;97406.06;;;10.00;99.30
5609;BME280;2826;51.354;9.588;2023-11-19T04:53:43;97413.31;;;9.93;99.97
5609;BME280;2826;51.354;9.588;2023-11-19T04:56:11;97406.84;;;10.02;99.50
5609;BME280;2826;51.354;9.588;2023-11-19T04:58:38;97409.13;;;10.08;99.04
5609;BME280;2826;51.354;9.588;2023-11-19T05:01:05;97407.00;;;9.99;99.41
5609;BME280;2826;51.354;9.588;2023-11-19T05:03:33;97403.88;;;10.10;99.06
5609;BME280;2826;51.354;9.588;2023-11-19T05:06:01;97413.31;;;10.11;99.18
5609;BME280;2826;51.354;9.588;2023-11-19T05:08:28;97405.00;;;10.04;99.94
5609;BME280;2826;51.354;9.588;2023-11-19T05:10:55;97407.91;;;9.98;100.00
5609;BME280;2826;51.354;9.588;2023-11-19T05:13:23;97410.81;;;10.09;100.00
5609;BME280;2826;51.354;9.588;2023-11-19T05:15:49;97417.34;;;10.16;99.85
5609;BME280;2826;51.354;9.588;2023-11-19T05:18:16;97401.97;;;10.13;99.84
5609;BME280;2826;51.354;9.588;2023-11-19T05:20:44;97402.75;;;10.15;99.73
5609;BME280;2826;51.354;9.588;2023-11-19T05:23:11;97400.16;;;10.15;99.24
5609;BME280;2826;51.354;9.588;2023-11-19T05:25:37;97390.84;;;10.11;100.00
5609;BME280;2826;51.354;9.588;2023-11-19T05:28:04;97383.06;;;10.11;100.00
5609;BME280;2826;51.354;9.588;2023-11-19T05:30:30;97388.66;;;10.21;99.52
5609;BME280;2826;51.354;9.588;2023-11-19T05:32:57;97390.78;;;10.13;100.00
5609;BME280;2826;51.354;9.588;2023-11-19T05:35:24;97385.97;;;10.23;99.78
5609;BME280;2826;51.354;9.588;2023-11-19T05:37:52;97389.16;;;10.28;99.36
5609;BME280;2826;51.354;9.588;2023-11-19T05:40:19;97392.75;;;10.25;99.99
5609;BME280;2826;51.354;9.588;2023-11-19T05:42:46;97392.50;;;10.30;100.00
5609;BME280;2826;51.354;9.588;2023-11-19T05:45:13;97370.44;;;10.05;100.00
5609;BME280;2826;51.354;9.588;2023-11-19T05:47:39;97396.16;;;10.26;100.00
5609;BME280;2826;51.354;9.588;2023-11-19T05:50:07;97396.63;;;10.34;99.92
5609;BME280;2826;51.354;9.588;2023-11-19T05:52:34;97400.19;;;10.31;100.00
5609;BME280;2826;51.354;9.588;2023-11-19T05:55:02;97399.06;;;10.37;99.73
5609;BME280;2826;51.354;9.588;2023-11-19T05:57:34;97398.28;;;10.35;99.97
5609;BME280;2826;51.354;9.588;2023-11-19T06:00:01;97397.22;;;10.39;99.86
5609;BME280;2826;51.354;9.588;2023-11-19T06:02:37;97386.03;;;10.39;99.66
5609;BME280;2826;51.354;9.588;2023-11-19T06:05:04;97392.22;;;10.36;100.00
5609;BME280;2826;51.354;9.588;2023-11-19T06:07:32;97405.91;;;10.38;100.00
5609;BME280;2826;51.354;9.588;2023-11-19T06:10:02;97385.66;;;10.11;100.00
5609;BME280;2826;51.354;9.588;2023-11-19T06:12:31;97397.91;;;10.43;100.00
5609;BME280;2826;51.354;9.588;2023-11-19T06:14:59;97405.63;;;10.44;100.00
5609;BME280;2826;51.354;9.588;2023-11-19T06:17:26;97405.69;;;10.43;99.86
5609;BME280;2826;51.354;9.588;2023-11-19T06:19:53;97409.91;;;10.45;99.80
5609;BME280;2826;51.354;9.588;2023-11-19T06:22:21;97409.81;;;10.47;99.75
5609;BME280;2826;51.354;9.588;2023-11-19T06:24:47;97410.72;;;10.46;100.00
5609;BME280;2826;51.354;9.588;2023-11-19T06:27:16;97417.69;;;10.45;100.00
5609;BME280;2826;51.354;9.588;2023-11-19T06:29:42;97413.59;;;10.40;100.00
5609;BME280;2826;51.354;9.588;2023-11-19T06:32:09;97415.09;;;10.45;100.00
5609;BME280;2826;51.354;9.588;2023-11-19T06:34:36;97417.78;;;10.42;100.00
5609;BME280;2826;51.354;9.588;2023-11-19T06:37:03;97422.88;;;10.45;100.00
5609;BME280;2826;51.354;9.588;2023-11-19T06:39:30;97428.78;;;10.48;100.00
5609;BME280;2826;51.354;9.588;2023-11-19T06:41:57;97428.66;;;10.51;100.00
5609;BME280;2826;51.354;9.588;2023-11-19T06:44:24;97429.25;;;10.56;100.00
5609;BME280;2826;51.354;9.588;2023-11-19T06:46:51;97424.72;;;10.59;99.75
5609;BME280;2826;51.354;9.588;2023-11-19T06:49:19;97387.31;;;10.30;100.00
5609;BME280;2826;51.354;9.588;2023-11-19T06:51:45;97422.38;;;10.55;100.00
5609;BME280;2826;51.354;9.588;2023-11-19T06:54:12;97423.13;;;10.57;100.00
5609;BME280;2826;51.354;9.588;2023-11-19T06:56:39;97428.25;;;10.58;100.00
5609;BME280;2826;51.354;9.588;2023-11-19T06:59:07;97419.38;;;10.63;100.00
5609;BME280;2826;51.354;9.588;2023-11-19T07:01:35;97418.78;;;10.57;100.00
5609;BME280;2826;51.354;9.588;2023-11-19T07:04:03;97422.97;;;10.60;100.00
5609;BME280;2826;51.354;9.588;2023-11-19T07:06:34;97435.78;;;10.63;100.00
5609;BME280;2826;51.354;9.588;2023-11-19T07:09:02;97435.38;;;10.71;100.00
5609;BME280;2826;51.354;9.588;2023-11-19T07:11:35;97428.91;;;10.62;100.00
5609;BME280;2826;51.354;9.588;2023-11-19T07:14:02;97439.81;;;10.69;100.00
5609;BME280;2826;51.354;9.588;2023-11-19T07:16:29;97432.94;;;10.68;100.00
5609;BME280;2826;51.354;9.588;2023-11-19T07:18:57;97435.47;;;10.69;100.00
5609;BME280;2826;51.354;9.588;2023-11-19T07:21:25;97433.97;;;10.81;100.00
5609;BME280;2826;51.354;9.588;2023-11-19T07:23:53;97429.50;;;10.85;100.00
5609;BME280;2826;51.354;9.588;2023-11-19T07:26:20;97441.34;;;10.89;100.00
5609;BME280;2826;51.354;9.588;2023-11-19T07:28:47;97443.44;;;10.82;100.00
5609;BME280;2826;51.354;9.588;2023-11-19T07:31:13;97437.09;;;10.88;100.00
5609;BME280;2826;51.354;9.588;2023-11-19T07:33:40;97437.84;;;10.90;100.00
5609;BME280;2826;51.354;9.588;2023-11-19T07:36:09;97437.59;;;10.95;100.00
5609;BME280;2826;51.354;9.588;2023-11-19T07:38:37;97436.56;;;10.81;100.00
5609;BME280;2826;51.354;9.588;2023-11-19T07:41:05;97433.06;;;10.82;100.00
5609;BME280;2826;51.354;9.588;2023-11-19T07:43:32;97441.03;;;10.95;100.00
5609;BME280;2826;51.354;9.588;2023-11-19T07:45:58;97427.81;;;11.00;100.00
5609;BME280;2826;51.354;9.588;2023-11-19T07:48:25;97438.53;;;10.94;100.00
5609;BME280;2826;51.354;9.588;2023-11-19T07:50:52;97414.16;;;10.80;100.00
5609;BME280;2826;51.354;9.588;2023-11-19T07:53:20;97444.56;;;10.94;100.00
5609;BME280;2826;51.354;9.588;2023-11-19T07:55:47;97447.66;;;11.01;100.00
5609;BME280;2826;51.354;9.588;2023-11-19T07:58:14;97447.41;;;11.06;100.00
5609;BME280;2826;51.354;9.588;2023-11-19T08:00:41;97443.81;;;11.08;100.00
5609;BME280;2826;51.354;9.588;2023-11-19T08:03:07;97432.69;;;11.06;100.00
5609;BME280;2826;51.354;9.588;2023-11-19T08:05:34;97449.78;;;11.10;100.00
5609;BME280;2826;51.354;9.588;2023-11-19T08:08:01;97448.34;;;11.05;100.00
5609;BME280;2826;51.354;9.588;2023-11-19T08:10:29;97426.50;;;11.09;100.00
5609;BME280;2826;51.354;9.588;2023-11-19T08:12:56;97428.50;;;11.04;100.00
5609;BME280;2826;51.354;9.588;2023-11-19T08:15:22;97434.50;;;11.04;100.00
5609;BME280;2826;51.354;9.588;2023-11-19T08:17:49;97422.38;;;11.05;100.00
5609;BME280;2826;51.354;9.588;2023-11-19T08:20:16;97432.50;;;11.09;100.00
5609;BME280;2826;51.354;9.588;2023-11-19T08:22:43;97428.00;;;11.13;100.00
5609;BME280;2826;51.354;9.588;2023-11-19T08:25:10;97439.41;;;11.10;100.00
5609;BME280;2826;51.354;9.588;2023-11-19T08:27:38;97442.41;;;11.19;100.00
5609;BME280;2826;51.354;9.588;2023-11-19T08:30:05;97445.84;;;11.19;100.00
5609;BME280;2826;51.354;9.588;2023-11-19T08:32:34;97451.78;;;11.21;100.00
5609;BME280;2826;51.354;9.588;2023-11-19T08:35:01;97453.13;;;11.29;100.00
5609;BME280;2826;51.354;9.588;2023-11-19T08:37:27;97463.78;;;11.40;99.89
5609;BME280;2826;51.354;9.588;2023-11-19T08:39:54;97464.44;;;11.44;99.45
5609;BME280;2826;51.354;9.588;2023-11-19T08:42:21;97472.22;;;11.44;99.64
5609;BME280;2826;51.354;9.588;2023-11-19T08:44:50;97467.69;;;11.47;99.23
5609;BME280;2826;51.354;9.588;2023-11-19T08:47:19;97467.78;;;11.46;99.42
5609;BME280;2826;51.354;9.588;2023-11-19T08:49:48;97475.97;;;11.54;99.46
5609;BME280;2826;51.354;9.588;2023-11-19T08:52:14;97476.81;;;11.55;99.42
5609;BME280;2826;51.354;9.588;2023-11-19T08:54:43;97462.25;;;11.52;99.85
5609;BME280;2826;51.354;9.588;2023-11-19T08:57:09;97472.06;;;11.63;99.69
5609;BME280;2826;51.354;9.588;2023-11-19T08:59:36;97466.34;;;11.72;99.69
5609;BME280;2826;51.354;9.588;2023-11-19T09:02:05;97467.00;;;11.76;99.81
5609;BME280;2826;51.354;9.588;2023-11-19T09:04:32;97476.19;;;11.98;98.24
5609;BME280;2826;51.354;9.588;2023-11-19T09:06:59;97484.09;;;12.12;97.53
5609;BME280;2826;51.354;9.588;2023-11-19T09:09:26;97489.84;;;12.18;96.44
5609;BME280;2826;51.354;9.588;2023-11-19T09:11:52;97498.34;;;12.36;95.71
5609;BME280;2826;51.354;9.588;2023-11-19T09:14:19;97511.00;;;12.42;94.83
5609;BME280;2826;51.354;9.588;2023-11-19T09:16:49;97516.94;;;12.44;94.38
5609;BME280;2826;51.354;9.588;2023-11-19T09:19:17;97506.44;;;12.46;94.55
5609;BME280;2826;51.354;9.588;2023-11-19T09:21:44;97511.16;;;12.39;94.93
5609;BME280;2826;51.354;9.588;2023-11-19T09:24:11;97513.78;;;12.39;94.24
5609;BME280;2826;51.354;9.588;2023-11-19T09:26:38;97513.50;;;12.44;93.73
5609;BME280;2826;51.354;9.588;2023-11-19T09:29:06;97525.66;;;12.43;93.02
5609;BME280;2826;51.354;9.588;2023-11-19T09:31:33;97516.09;;;12.44;93.19
5609;BME280;2826;51.354;9.588;2023-11-19T09:33:59;97512.50;;;12.46;92.33
5609;BME280;2826;51.354;9.588;2023-11-19T09:36:27;97512.31;;;12.49;92.34
5609;BME280;2826;51.354;9.588;2023-11-19T09:38:54;97512.03;;;12.54;91.98
5609;BME280;2826;51.354;9.588;2023-11-19T09:41:21;97519.66;;;12.57;91.80
5609;BME280;2826;51.354;9.588;2023-11-19T09:43:49;97530.44;;;12.65;91.29
5609;BME280;2826;51.354;9.588;2023-11-19T09:46:16;97528.69;;;12.66;89.92
5609;BME280;2826;51.354;9.588;2023-11-19T09:48:44;97526.72;;;12.55;87.60
5609;BME280;2826;51.354;9.588;2023-11-19T09:51:11;97536.25;;;12.71;86.72
5609;BME280;2826;51.354;9.588;2023-11-19T09:53:40;97533.25;;;12.77;86.44
5609;BME280;2826;51.354;9.588;2023-11-19T09:56:07;97521.28;;;12.74;84.89
5609;BME280;2826;51.354;9.588;2023-11-19T09:58:34;97483.44;;;12.54;82.38
5609;BME280;2826;51.354;9.588;2023-11-19T10:01:01;97530.03;;;12.73;79.82
5609;BME280;2826;51.354;9.588;2023-11-19T10:03:34;97525.06;;;12.68;76.28
5609;BME280;2826;51.354;9.588;2023-11-19T10:06:03;97522.94;;;12.75;74.57
5609;BME280;2826;51.354;9.588;2023-11-19T10:08:30;97523.16;;;12.87;73.38
5609;BME280;2826;51.354;9.588;2023-11-19T10:10:58;97517.56;;;12.93;73.78
5609;BME280;2826;51.354;9.588;2023-11-19T10:13:26;97519.25;;;12.79;71.23
5609;BME280;2826;51.354;9.588;2023-11-19T10:15:53;97515.34;;;12.87;71.73
5609;BME280;2826;51.354;9.588;2023-11-19T10:18:25;97508.75;;;12.96;70.58
5609;BME280;2826;51.354;9.588;2023-11-19T10:20:52;97503.84;;;12.91;69.29
5609;BME280;2826;51.354;9.588;2023-11-19T10:23:19;97496.28;;;13.01;69.75
5609;BME280;2826;51.354;9.588;2023-11-19T10:25:46;97505.41;;;13.08;70.20
5609;BME280;2826;51.354;9.588;2023-11-19T10:28:15;97493.72;;;13.15;68.47
5609;BME280;2826;51.354;9.588;2023-11-19T10:30:42;97493.47;;;13.33;69.34
5609;BME280;2826;51.354;9.588;2023-11-19T10:33:10;97495.19;;;13.34;68.20
5609;BME280;2826;51.354;9.588;2023-11-19T10:35:51;97504.75;;;13.33;68.40
5609;BME280;2826;51.354;9.588;2023-11-19T10:38:18;97488.38;;;13.31;67.09
5609;BME280;2826;51.354;9.588;2023-11-19T10:40:44;97493.38;;;13.35;68.15
5609;BME280;2826;51.354;9.588;2023-11-19T10:43:11;97487.53;;;13.31;68.00
5609;BME280;2826;51.354;9.588;2023-11-19T10:45:40;97495.25;;;13.32;68.71
5609;BME280;2826;51.354;9.588;2023-11-19T10:48:07;97497.00;;;13.32;68.55
5609;BME280;2826;51.354;9.588;2023-11-19T10:50:34;97485.03;;;13.29;68.69
5609;BME280;2826;51.354;9.588;2023-11-19T10:53:02;97484.38;;;13.26;69.18
5609;BME280;2826;51.354;9.588;2023-11-19T10:55:31;97480.22;;;13.23;69.54
5609;BME280;2826;51.354;9.588;2023-11-19T10:57:59;97484.31;;;13.27;69.33
5609;BME280;2826;51.354;9.588;2023-11-19T11:00:29;97477.13;;;13.31;68.86
5609;BME280;2826;51.354;9.588;2023-11-19T11:03:01;97473.00;;;13.41;68.96
5609;BME280;2826;51.354;9.588;2023-11-19T11:05:32;97469.59;;;13.41;68.75
5609;BME280;2826;51.354;9.588;2023-11-19T11:08:00;97465.09;;;13.43;68.00
5609;BME280;2826;51.354;9.588;2023-11-19T11:10:28;97461.09;;;13.37;67.41
5609;BME280;2826;51.354;9.588;2023-11-19T11:12:59;97460.06;;;13.40;66.18
5609;BME280;2826;51.354;9.588;2023-11-19T11:15:27;97461.03;;;13.39;66.66
5609;BME280;2826;51.354;9.588;2023-11-19T11:17:59;97464.03;;;13.32;66.72
5609;BME280;2826;51.354;9.588;2023-11-19T11:20:27;97454.19;;;13.23;65.98
5609;BME280;2826;51.354;9.588;2023-11-19T11:23:06;97456.47;;;13.28;66.66
5609;BME280;2826;51.354;9.588;2023-11-19T11:25:44;97460.56;;;13.32;66.19
5609;BME280;2826;51.354;9.588;2023-11-19T11:28:24;97457.69;;;13.37;64.75
5609;BME280;2826;51.354;9.588;2023-11-19T11:31:08;97476.72;;;13.37;65.17
5609;BME280;2826;51.354;9.588;2023-11-19T11:33:54;97464.47;;;13.39;65.67
5609;BME280;2826;51.354;9.588;2023-11-19T11:36:24;97461.03;;;13.39;65.84
5609;BME280;2826;51.354;9.588;2023-11-19T11:38:53;97465.59;;;13.35;66.43
5609;BME280;2826;51.354;9.588;2023-11-19T11:41:25;97473.69;;;13.30;67.18
5609;BME280;2826;51.354;9.588;2023-11-19T11:43:53;97475.63;;;13.27;67.01
5609;BME280;2826;51.354;9.588;2023-11-19T11:46:54;97468.59;;;13.29;67.03
5609;BME280;2826;51.354;9.588;2023-11-19T11:49:28;97475.28;;;13.18;67.06
5609;BME280;2826;51.354;9.588;2023-11-19T11:52:03;97469.59;;;13.26;66.45
5609;BME280;2826;51.354;9.588;2023-11-19T11:54:29;97465.59;;;13.35;66.30
5609;BME280;2826;51.354;9.588;2023-11-19T11:57:03;97469.84;;;13.36;66.00
5609;BME280;2826;51.354;9.588;2023-11-19T11:59:43;97463.06;;;13.33;66.97
5609;BME280;2826;51.354;9.588;2023-11-19T12:02:12;97463.00;;;13.35;66.78
5609;BME280;2826;51.354;9.588;2023-11-19T12:04:41;97469.84;;;13.36;65.74
5609;BME280;2826;51.354;9.588;2023-11-19T12:07:12;97457.97;;;13.32;66.19
5609;BME280;2826;51.354;9.588;2023-11-19T12:09:40;97482.97;;;13.35;66.63
5609;BME280;2826;51.354;9.588;2023-11-19T12:12:18;97491.72;;;13.33;67.71
5609;BME280;2826;51.354;9.588;2023-11-19T12:15:06;97488.13;;;13.22;70.15
5609;BME280;2826;51.354;9.588;2023-11-19T12:17:47;97491.00;;;13.02;70.52
5609;BME280;2826;51.354;9.588;2023-11-19T12:20:19;97491.47;;;12.94;71.47
5609;BME280;2826;51.354;9.588;2023-11-19T12:22:47;97481.41;;;12.88;71.57
5609;BME280;2826;51.354;9.588;2023-11-19T12:25:16;97484.47;;;12.80;71.79
5609;BME280;2826;51.354;9.588;2023-11-19T12:27:44;97479.38;;;12.79;71.73
5609;BME280;2826;51.354;9.588;2023-11-19T12:30:12;97471.75;;;12.76;72.44
5609;BME280;2826;51.354;9.588;2023-11-19T12:32:39;97471.94;;;12.73;72.42
5609;BME280;2826;51.354;9.588;2023-11-19T12:35:07;97463.59;;;12.67;72.91
5609;BME280;2826;51.354;9.588;2023-11-19T12:37:44;97465.25;;;12.68;73.56
5609;BME280;2826;51.354;9.588;2023-11-19T12:40:13;97466.00;;;12.71;73.20
5609;BME280;2826;51.354;9.588;2023-11-19T12:42:40;97454.84;;;12.68;73.35
5609;BME280;2826;51.354;9.588;2023-11-19T12:45:08;97463.88;;;12.77;71.76
5609;BME280;2826;51.354;9.588;2023-11-19T12:47:36;97463.88;;;12.92;69.96
5609;BME280;2826;51.354;9.588;2023-11-19T12:50:03;97455.13;;;13.07;67.90
5609;BME280;2826;51.354;9.588;2023-11-19T12:52:30;97442.91;;;13.23;68.87
5609;BME280;2826;51.354;9.588;2023-11-19T12:54:59;97439.66;;;13.33;67.97
5609;BME280;2826;51.354;9.588;2023-11-19T12:57:36;97434.88;;;13.40;66.43
5609;BME280;2826;51.354;9.588;2023-11-19T13:00:04;97433.94;;;13.41;66.57
5609;BME280;2826;51.354;9.588;2023-11-19T13:02:48;97408.59;;;13.30;66.03
5609;BME280;2826;51.354;9.588;2023-11-19T13:05:23;97429.22;;;13.33;66.34
5609;BME280;2826;51.354;9.588;2023-11-19T13:07:50;97433.66;;;13.61;66.93
5609;BME280;2826;51.354;9.588;2023-11-19T13:10:18;97439.75;;;13.74;64.81
5609;BME280;2826;51.354;9.588;2023-11-19T13:12:59;97420.56;;;13.75;63.03
5609;BME280;2826;51.354;9.588;2023-11-19T13:15:26;97439.06;;;13.85;62.56
5609;BME280;2826;51.354;9.588;2023-11-19T13:17:54;97437.28;;;13.85;62.82
5609;BME280;2826;51.354;9.588;2023-11-19T13:20:20;97434.16;;;13.80;62.08
5609;BME280;2826;51.354;9.588;2023-11-19T13:22:55;97438.66;;;13.64;61.75
5609;BME280;2826;51.354;9.588;2023-11-19T13:25:24;97439.16;;;13.56;60.94
5609;BME280;2826;51.354;9.588;2023-11-19T13:27:51;97435.72;;;13.41;60.96
5609;BME280;2826;51.354;9.588;2023-11-19T13:30:18;97425.50;;;13.38;60.91